createdAt,value
2024-03-27T00:01:12.350Z,59.05
2024-03-27T00:06:24.412Z,59.33
2024-03-27T00:11:30.341Z,59.35
2024-03-27T00:16:36.557Z,59.35
2024-03-27T00:21:42.638Z,59.56
2024-03-27T00:26:48.778Z,59.41
2024-03-27T00:31:56.278Z,59.42
2024-03-27T00:37:03.098Z,59.54
2024-03-27T00:42:09.228Z,59.64
2024-03-27T00:47:15.081Z,59.82
2024-03-27T00:52:21.175Z,59.83
2024-03-27T00:57:27.232Z,59.66
2024-03-27T01:02:33.307Z,59.65
2024-03-27T01:07:39.323Z,59.63
2024-03-27T01:12:45.858Z,59.72
2024-03-27T01:17:51.998Z,59.74
2024-03-27T01:22:58.171Z,59.88
2024-03-27T01:28:04.874Z,59.65
2024-03-27T01:33:11.125Z,59.60
2024-03-27T01:38:17.281Z,59.69
2024-03-27T01:43:23.580Z,59.62
2024-03-27T01:48:29.500Z,59.65
2024-03-27T01:53:36.173Z,59.70
2024-03-27T01:58:42.579Z,59.71
2024-03-27T02:03:49.889Z,59.84
2024-03-27T02:08:56.019Z,59.72
2024-03-27T02:14:02.027Z,59.71
2024-03-27T02:19:08.653Z,59.74
2024-03-27T02:24:20.623Z,59.67
2024-03-27T02:29:26.878Z,59.69
2024-03-27T02:34:33.077Z,59.60
2024-03-27T02:39:39.176Z,59.56
2024-03-27T02:44:45.339Z,59.41
2024-03-27T02:49:51.681Z,59.36
2024-03-27T02:54:57.891Z,59.20
2024-03-27T03:00:08.957Z,58.98
2024-03-27T03:05:15.278Z,58.86
2024-03-27T03:10:21.270Z,58.74
2024-03-27T03:15:27.361Z,58.71
2024-03-27T03:20:33.387Z,58.78
2024-03-27T03:25:39.306Z,58.82
2024-03-27T03:30:45.582Z,58.77
2024-03-27T03:35:57.132Z,58.90
2024-03-27T03:41:06.707Z,58.85
2024-03-27T03:46:14.220Z,58.76
2024-03-27T03:51:20.418Z,58.86
2024-03-27T03:56:26.397Z,58.92
2024-03-27T04:01:32.438Z,58.86
2024-03-27T04:06:38.446Z,58.85
2024-03-27T04:11:44.381Z,58.74
2024-03-27T04:16:50.553Z,58.82
2024-03-27T04:21:56.776Z,58.46
2024-03-27T04:27:02.835Z,58.42
2024-03-27T04:32:09.790Z,58.55
2024-03-27T04:37:15.930Z,58.34
2024-03-27T04:42:21.869Z,58.29
2024-03-27T04:47:27.774Z,58.20
2024-03-27T04:52:33.802Z,58.15
2024-03-27T04:57:39.839Z,57.97
2024-03-27T05:02:45.882Z,57.78
2024-03-27T05:07:51.946Z,57.64
2024-03-27T05:12:57.953Z,57.40
2024-03-27T05:18:04.565Z,57.20
2024-03-27T05:23:13.011Z,57.08
2024-03-27T05:28:19.186Z,56.75
2024-03-27T05:33:25.096Z,56.30
2024-03-27T05:38:31.911Z,55.94
2024-03-27T05:43:38.231Z,55.39
2024-03-27T05:48:44.305Z,54.65
2024-03-27T05:53:50.737Z,53.23
2024-03-27T05:58:57.699Z,51.46
2024-03-27T06:04:03.756Z,50.33
2024-03-27T06:09:10.140Z,49.84
2024-03-27T06:14:16.150Z,50.47
2024-03-27T06:19:22.626Z,50.36
2024-03-27T06:24:29.161Z,50.61
2024-03-27T06:29:35.657Z,50.74
2024-03-27T06:34:41.968Z,48.56
2024-03-27T06:39:48.385Z,45.35
2024-03-27T06:44:58.930Z,43.69
2024-03-27T06:50:06.368Z,40.16
2024-03-27T06:55:13.155Z,37.82
2024-03-27T07:00:20.562Z,35.25
2024-03-27T07:05:26.701Z,34.23
2024-03-27T07:10:32.729Z,32.93
2024-03-27T07:15:38.833Z,32.12
2024-03-27T07:20:44.914Z,30.30
2024-03-27T07:25:51.017Z,29.95
2024-03-27T07:31:06.141Z,28.66
2024-03-27T07:36:14.119Z,28.10
2024-03-27T07:41:20.176Z,27.03
2024-03-27T07:46:26.148Z,25.98
2024-03-27T07:51:32.354Z,25.97
2024-03-27T07:56:44.935Z,25.98
2024-03-27T08:01:50.919Z,25.70
2024-03-27T08:06:58.049Z,24.62
2024-03-27T08:12:04.721Z,24.45
2024-03-27T08:17:13.833Z,23.95
2024-03-27T08:22:21.681Z,23.68
2024-03-27T08:27:27.670Z,24.48
2024-03-27T08:32:34.917Z,23.59
2024-03-27T08:37:40.926Z,23.54
2024-03-27T08:42:46.996Z,23.57
2024-03-27T08:47:53.392Z,22.07
2024-03-27T08:52:59.678Z,22.94
2024-03-27T08:58:06.478Z,22.64
2024-03-27T09:03:13.179Z,23.05
2024-03-27T09:08:19.274Z,22.18
2024-03-27T09:13:25.500Z,22.99
2024-03-27T09:18:31.802Z,23.02
2024-03-27T09:23:38.198Z,22.91
2024-03-27T09:28:44.317Z,23.25
2024-03-27T09:33:50.530Z,23.22
2024-03-27T09:38:57.293Z,23.76
2024-03-27T09:44:04.394Z,23.00
2024-03-27T09:49:10.590Z,23.12
2024-03-27T09:54:16.986Z,23.27
2024-03-27T09:59:23.579Z,23.97
2024-03-27T10:04:29.858Z,23.35
2024-03-27T10:09:36.470Z,22.70
2024-03-27T10:14:42.606Z,24.59
2024-03-27T10:19:48.777Z,24.01
2024-03-27T10:24:54.945Z,23.89
2024-03-27T10:32:18.556Z,23.73
2024-03-27T10:37:27.036Z,24.29
2024-03-27T10:42:37.760Z,24.85
2024-03-27T10:47:44.925Z,23.98
2024-03-27T10:52:53.490Z,24.32
2024-03-27T10:58:01.780Z,25.57
2024-03-27T11:03:09.249Z,25.65
2024-03-27T11:08:18.836Z,25.43
2024-03-27T11:13:25.203Z,24.59
2024-03-27T11:18:33.144Z,25.35
2024-03-27T11:23:41.875Z,26.17
2024-03-27T11:28:54.959Z,26.99
2024-03-27T11:34:01.088Z,27.33
2024-03-27T11:39:07.626Z,27.66
2024-03-27T11:44:13.841Z,27.87
2024-03-27T11:49:19.941Z,28.61
2024-03-27T11:54:29.416Z,29.28
2024-03-27T11:59:35.886Z,29.97
2024-03-27T12:04:42.407Z,29.96
2024-03-27T12:09:50.121Z,29.48
2024-03-27T12:14:57.622Z,30.63
2024-03-27T12:20:05.856Z,29.96
2024-03-27T12:25:12.766Z,29.96
2024-03-27T12:30:20.790Z,30.60
2024-03-27T12:35:27.032Z,30.51
2024-03-27T12:40:32.952Z,30.13
2024-03-27T12:45:39.001Z,30.17
2024-03-27T12:50:45.042Z,30.90
2024-03-27T12:55:52.974Z,30.70
2024-03-27T13:00:59.937Z,31.13
2024-03-27T13:06:08.305Z,30.77
2024-03-27T13:11:14.275Z,31.40
2024-03-27T13:16:20.920Z,31.05
2024-03-27T13:21:27.240Z,31.73
2024-03-27T13:26:33.060Z,31.95
2024-03-27T13:31:39.046Z,31.80
2024-03-27T13:36:45.309Z,31.75
2024-03-27T13:41:51.739Z,31.92
2024-03-27T13:46:57.800Z,32.03
2024-03-27T13:52:04.407Z,32.59
2024-03-27T13:57:10.678Z,32.09
2024-03-27T14:02:16.689Z,32.26
2024-03-27T14:07:22.708Z,32.68
2024-03-27T14:12:29.093Z,32.92
2024-03-27T14:17:35.046Z,33.36
2024-03-27T14:22:41.111Z,33.46
2024-03-27T14:27:47.249Z,33.89
2024-03-27T14:32:53.370Z,34.76
2024-03-27T14:37:59.338Z,34.79
2024-03-27T14:43:05.858Z,35.31
2024-03-27T14:48:12.263Z,36.09
2024-03-27T14:53:18.351Z,36.39
2024-03-27T14:58:24.363Z,36.87
2024-03-27T15:03:31.876Z,37.63
2024-03-27T15:08:38.227Z,37.94
2024-03-27T15:13:44.909Z,38.16
2024-03-27T15:18:51.610Z,38.38
2024-03-27T15:23:58.333Z,38.87
2024-03-27T15:29:05.798Z,39.13
2024-03-27T15:34:11.782Z,39.25
2024-03-27T15:39:18.100Z,39.29
2024-03-27T15:44:24.088Z,39.40
2024-03-27T15:49:33.332Z,39.38
2024-03-27T15:54:39.440Z,39.25
2024-03-27T15:59:45.654Z,39.28
2024-03-27T16:04:53.646Z,39.69
2024-03-27T16:10:00.959Z,39.67
2024-03-27T16:15:09.071Z,39.56
2024-03-27T16:20:17.587Z,39.84
2024-03-27T16:25:23.492Z,39.96
2024-03-27T16:30:29.457Z,40.17
2024-03-27T16:35:36.172Z,40.27
2024-03-27T16:40:42.883Z,40.49
2024-03-27T16:45:49.520Z,40.58
2024-03-27T16:50:57.808Z,40.76
2024-03-27T16:56:06.110Z,41.05
2024-03-27T17:01:12.337Z,41.41
2024-03-27T17:06:18.395Z,41.85
2024-03-27T17:11:28.286Z,42.20
2024-03-27T17:16:34.407Z,42.51
2024-03-27T17:21:40.368Z,42.68
2024-03-27T17:26:46.298Z,42.84
2024-03-27T17:31:52.496Z,42.95
2024-03-27T17:36:58.535Z,43.18
2024-03-27T17:42:04.960Z,43.21
2024-03-27T17:47:11.264Z,43.37
2024-03-27T17:52:17.299Z,43.38
2024-03-27T17:57:23.243Z,43.39
2024-03-27T18:02:29.528Z,43.48
2024-03-27T18:07:37.224Z,43.79
2024-03-27T18:12:43.326Z,44.05
2024-03-27T18:17:49.947Z,44.27
2024-03-27T18:22:55.949Z,44.59
2024-03-27T18:28:02.110Z,45.05
2024-03-27T18:33:11.101Z,45.26
2024-03-27T18:38:17.143Z,45.58
2024-03-27T18:43:23.153Z,45.84
2024-03-27T18:48:29.505Z,46.08
2024-03-27T18:53:35.496Z,46.46
2024-03-27T18:58:42.682Z,46.53
2024-03-27T19:03:48.694Z,46.79
2024-03-27T19:08:54.693Z,46.98
2024-03-27T19:14:00.968Z,47.06
2024-03-27T19:19:06.981Z,47.27
2024-03-27T19:24:13.330Z,47.13
2024-03-27T19:29:19.595Z,47.35
2024-03-27T19:34:25.683Z,47.20
2024-03-27T19:39:32.838Z,47.31
2024-03-27T19:44:39.039Z,47.24
2024-03-27T19:49:46.162Z,47.15
2024-03-27T19:54:52.549Z,47.11
2024-03-27T19:59:58.515Z,47.09
2024-03-27T20:05:05.162Z,47.01
2024-03-27T20:10:11.795Z,46.93
2024-03-27T20:15:18.692Z,47.16
2024-03-27T20:20:25.010Z,47.09
2024-03-27T20:25:32.145Z,47.15
2024-03-27T20:30:38.824Z,47.33
2024-03-27T20:35:45.264Z,47.31
2024-03-27T20:40:54.467Z,47.26
2024-03-27T20:46:00.535Z,47.32
2024-03-27T20:51:06.832Z,47.16
2024-03-27T20:56:13.197Z,47.08
2024-03-27T21:01:19.327Z,46.93
2024-03-27T21:06:25.361Z,47.09
2024-03-27T21:11:31.305Z,47.22
2024-03-27T21:16:37.431Z,47.23
2024-03-27T21:21:43.784Z,47.37
2024-03-27T21:26:50.263Z,47.25
2024-03-27T21:31:56.352Z,47.51
2024-03-27T21:37:02.493Z,47.49
2024-03-27T21:42:08.706Z,47.51
2024-03-27T21:47:15.882Z,47.54
2024-03-27T21:52:22.108Z,47.53
2024-03-27T21:57:28.102Z,47.73
2024-03-27T22:02:34.673Z,47.80
2024-03-27T22:07:40.725Z,47.94
2024-03-27T22:12:46.960Z,48.08
2024-03-27T22:17:53.078Z,48.11
2024-03-27T22:22:59.001Z,48.23
2024-03-27T22:28:06.261Z,48.56
2024-03-27T22:33:12.292Z,48.72
2024-03-27T22:38:18.505Z,48.85
2024-03-27T22:43:24.514Z,49.19
2024-03-27T22:49:00.350Z,49.33
2024-03-27T22:54:07.812Z,49.53
2024-03-27T22:59:14.160Z,49.57
2024-03-27T23:04:20.466Z,49.65
2024-03-27T23:09:26.676Z,49.71
2024-03-27T23:14:33.063Z,49.79
2024-03-27T23:19:39.182Z,49.95
2024-03-27T23:24:45.250Z,50.17
2024-03-27T23:29:51.457Z,50.43
2024-03-27T23:34:58.333Z,50.76
2024-03-27T23:40:07.334Z,50.84
2024-03-27T23:45:13.751Z,51.06
2024-03-27T23:50:20.028Z,51.25
2024-03-27T23:55:25.950Z,51.45
